sensor_id;sensor_type;location;lat;lon;timestamp;P1;durP1;ratioP1;P2;durP2;ratioP2
51566;SDS011;37657;53.182;5.638;2022-12-16T00:02:12;6.28;;;4.88;;
51566;SDS011;37657;53.182;5.638;2022-12-16T00:04:38;14.98;;;5.70;;
51566;SDS011;37657;53.182;5.638;2022-12-16T00:07:03;7.80;;;3.72;;
51566;SDS011;37657;53.182;5.638;2022-12-16T00:09:29;5.85;;;3.20;;
51566;SDS011;37657;53.182;5.638;2022-12-16T00:11:55;5.82;;;3.63;;
51566;SDS011;37657;53.182;5.638;2022-12-16T00:14:20;16.23;;;3.92;;
51566;SDS011;37657;53.182;5.638;2022-12-16T00:16:46;7.43;;;4.10;;
51566;SDS011;37657;53.182;5.638;2022-12-16T00:19:11;6.90;;;3.17;;
51566;SDS011;37657;53.182;5.638;2022-12-16T00:21:37;6.35;;;3.60;;
51566;SDS011;37657;53.182;5.638;2022-12-16T00:24:02;7.55;;;3.35;;
51566;SDS011;37657;53.182;5.638;2022-12-16T00:26:28;7.05;;;4.53;;
51566;SDS011;37657;53.182;5.638;2022-12-16T00:28:55;6.28;;;3.83;;
51566;SDS011;37657;53.182;5.638;2022-12-16T00:31:21;8.93;;;3.05;;
51566;SDS011;37657;53.182;5.638;2022-12-16T00:33:47;7.82;;;4.85;;
51566;SDS011;37657;53.182;5.638;2022-12-16T00:36:12;6.18;;;3.70;;
51566;SDS011;37657;53.182;5.638;2022-12-16T00:38:38;5.80;;;2.88;;
51566;SDS011;37657;53.182;5.638;2022-12-16T00:41:03;9.15;;;4.60;;
51566;SDS011;37657;53.182;5.638;2022-12-16T00:43:32;7.15;;;4.15;;
51566;SDS011;37657;53.182;5.638;2022-12-16T00:45:58;6.88;;;3.80;;
51566;SDS011;37657;53.182;5.638;2022-12-16T00:48:23;8.48;;;5.22;;
51566;SDS011;37657;53.182;5.638;2022-12-16T00:50:50;10.55;;;3.75;;
51566;SDS011;37657;53.182;5.638;2022-12-16T00:53:16;8.77;;;3.60;;
51566;SDS011;37657;53.182;5.638;2022-12-16T00:55:43;7.75;;;4.72;;
51566;SDS011;37657;53.182;5.638;2022-12-16T00:58:08;23.48;;;5.85;;
51566;SDS011;37657;53.182;5.638;2022-12-16T01:00:34;7.72;;;4.72;;
51566;SDS011;37657;53.182;5.638;2022-12-16T01:03:00;7.03;;;2.75;;
51566;SDS011;37657;53.182;5.638;2022-12-16T01:05:25;9.30;;;5.93;;
51566;SDS011;37657;53.182;5.638;2022-12-16T01:07:51;7.03;;;4.10;;
51566;SDS011;37657;53.182;5.638;2022-12-16T01:10:18;4.40;;;3.53;;
51566;SDS011;37657;53.182;5.638;2022-12-16T01:12:44;6.78;;;4.70;;
51566;SDS011;37657;53.182;5.638;2022-12-16T01:15:10;8.73;;;5.45;;
51566;SDS011;37657;53.182;5.638;2022-12-16T01:17:37;7.38;;;5.10;;
51566;SDS011;37657;53.182;5.638;2022-12-16T01:20:04;8.60;;;4.25;;
51566;SDS011;37657;53.182;5.638;2022-12-16T01:22:31;6.40;;;4.63;;
51566;SDS011;37657;53.182;5.638;2022-12-16T01:24:58;6.30;;;4.82;;
51566;SDS011;37657;53.182;5.638;2022-12-16T01:27:24;5.40;;;4.72;;
51566;SDS011;37657;53.182;5.638;2022-12-16T01:29:50;9.18;;;4.95;;
51566;SDS011;37657;53.182;5.638;2022-12-16T01:32:16;9.95;;;5.18;;
51566;SDS011;37657;53.182;5.638;2022-12-16T01:34:41;5.32;;;3.70;;
51566;SDS011;37657;53.182;5.638;2022-12-16T01:37:09;7.35;;;5.95;;
51566;SDS011;37657;53.182;5.638;2022-12-16T01:39:36;6.70;;;4.65;;
51566;SDS011;37657;53.182;5.638;2022-12-16T01:42:02;10.40;;;5.20;;
51566;SDS011;37657;53.182;5.638;2022-12-16T01:44:28;8.25;;;6.53;;
51566;SDS011;37657;53.182;5.638;2022-12-16T01:46:55;5.63;;;4.47;;
51566;SDS011;37657;53.182;5.638;2022-12-16T01:49:38;7.35;;;3.88;;
51566;SDS011;37657;53.182;5.638;2022-12-16T01:52:26;5.72;;;4.35;;
51566;SDS011;37657;53.182;5.638;2022-12-16T01:54:57;6.00;;;3.97;;
51566;SDS011;37657;53.182;5.638;2022-12-16T01:57:42;4.30;;;3.10;;
51566;SDS011;37657;53.182;5.638;2022-12-16T02:00:13;7.20;;;3.67;;
51566;SDS011;37657;53.182;5.638;2022-12-16T02:02:40;4.85;;;3.47;;
51566;SDS011;37657;53.182;5.638;2022-12-16T02:05:08;6.55;;;4.15;;
51566;SDS011;37657;53.182;5.638;2022-12-16T02:18:27;18.20;;;6.28;;
51566;SDS011;37657;53.182;5.638;2022-12-16T02:21:16;4.80;;;3.30;;
51566;SDS011;37657;53.182;5.638;2022-12-16T02:24:07;7.97;;;3.88;;
51566;SDS011;37657;53.182;5.638;2022-12-16T02:32:20;4.90;;;3.70;;
51566;SDS011;37657;53.182;5.638;2022-12-16T02:37:37;4.47;;;3.50;;
51566;SDS011;37657;53.182;5.638;2022-12-16T02:43:16;6.32;;;4.38;;
51566;SDS011;37657;53.182;5.638;2022-12-16T02:45:46;8.43;;;3.90;;
51566;SDS011;37657;53.182;5.638;2022-12-16T02:48:14;6.07;;;3.95;;
51566;SDS011;37657;53.182;5.638;2022-12-16T02:50:41;5.20;;;3.65;;
51566;SDS011;37657;53.182;5.638;2022-12-16T02:53:11;7.47;;;4.05;;
51566;SDS011;37657;53.182;5.638;2022-12-16T02:55:52;3.80;;;2.95;;
51566;SDS011;37657;53.182;5.638;2022-12-16T03:01:40;8.63;;;4.35;;
51566;SDS011;37657;53.182;5.638;2022-12-16T03:04:30;7.35;;;3.78;;
51566;SDS011;37657;53.182;5.638;2022-12-16T03:07:03;12.32;;;4.65;;
51566;SDS011;37657;53.182;5.638;2022-12-16T03:09:33;8.20;;;3.78;;
51566;SDS011;37657;53.182;5.638;2022-12-16T03:12:02;7.38;;;3.45;;
51566;SDS011;37657;53.182;5.638;2022-12-16T03:14:31;5.60;;;2.60;;
51566;SDS011;37657;53.182;5.638;2022-12-16T03:16:59;4.88;;;3.00;;
51566;SDS011;37657;53.182;5.638;2022-12-16T03:19:28;6.07;;;3.78;;
51566;SDS011;37657;53.182;5.638;2022-12-16T03:22:08;6.82;;;3.72;;
51566;SDS011;37657;53.182;5.638;2022-12-16T03:24:38;5.13;;;3.78;;
51566;SDS011;37657;53.182;5.638;2022-12-16T03:32:11;6.68;;;3.15;;
51566;SDS011;37657;53.182;5.638;2022-12-16T03:34:52;4.70;;;3.15;;
51566;SDS011;37657;53.182;5.638;2022-12-16T03:37:26;4.32;;;3.15;;
51566;SDS011;37657;53.182;5.638;2022-12-16T03:39:58;7.03;;;4.25;;
51566;SDS011;37657;53.182;5.638;2022-12-16T03:42:27;5.60;;;3.33;;
51566;SDS011;37657;53.182;5.638;2022-12-16T03:44:53;7.13;;;4.40;;
51566;SDS011;37657;53.182;5.638;2022-12-16T03:47:18;8.70;;;3.92;;
51566;SDS011;37657;53.182;5.638;2022-12-16T03:49:44;5.65;;;4.25;;
51566;SDS011;37657;53.182;5.638;2022-12-16T03:52:10;9.93;;;4.70;;
51566;SDS011;37657;53.182;5.638;2022-12-16T03:54:35;7.05;;;4.32;;
51566;SDS011;37657;53.182;5.638;2022-12-16T03:57:01;5.55;;;5.00;;
51566;SDS011;37657;53.182;5.638;2022-12-16T03:59:27;7.75;;;4.97;;
51566;SDS011;37657;53.182;5.638;2022-12-16T04:01:53;10.25;;;5.78;;
51566;SDS011;37657;53.182;5.638;2022-12-16T04:04:18;6.18;;;3.92;;
51566;SDS011;37657;53.182;5.638;2022-12-16T04:06:44;7.75;;;5.00;;
51566;SDS011;37657;53.182;5.638;2022-12-16T04:09:30;14.63;;;5.88;;
51566;SDS011;37657;53.182;5.638;2022-12-16T04:11:55;6.10;;;4.45;;
51566;SDS011;37657;53.182;5.638;2022-12-16T04:14:39;8.23;;;4.57;;
51566;SDS011;37657;53.182;5.638;2022-12-16T04:17:24;8.45;;;7.40;;
51566;SDS011;37657;53.182;5.638;2022-12-16T04:20:12;10.68;;;5.60;;
51566;SDS011;37657;53.182;5.638;2022-12-16T04:22:59;7.50;;;4.72;;
51566;SDS011;37657;53.182;5.638;2022-12-16T04:25:43;8.98;;;5.60;;
51566;SDS011;37657;53.182;5.638;2022-12-16T04:28:10;10.65;;;6.40;;
51566;SDS011;37657;53.182;5.638;2022-12-16T04:30:35;7.60;;;5.88;;
51566;SDS011;37657;53.182;5.638;2022-12-16T04:33:11;15.43;;;6.18;;
51566;SDS011;37657;53.182;5.638;2022-12-16T04:35:56;11.30;;;6.65;;
51566;SDS011;37657;53.182;5.638;2022-12-16T04:38:40;8.30;;;6.30;;
51566;SDS011;37657;53.182;5.638;2022-12-16T04:41:24;6.75;;;5.28;;
51566;SDS011;37657;53.182;5.638;2022-12-16T04:44:08;8.88;;;6.20;;
51566;SDS011;37657;53.182;5.638;2022-12-16T04:46:52;11.40;;;7.15;;
51566;SDS011;37657;53.182;5.638;2022-12-16T04:49:36;6.20;;;4.95;;
51566;SDS011;37657;53.182;5.638;2022-12-16T04:52:21;8.35;;;6.45;;
51566;SDS011;37657;53.182;5.638;2022-12-16T04:55:06;8.07;;;7.20;;
51566;SDS011;37657;53.182;5.638;2022-12-16T04:57:54;6.72;;;5.50;;
51566;SDS011;37657;53.182;5.638;2022-12-16T05:00:42;16.55;;;8.50;;
51566;SDS011;37657;53.182;5.638;2022-12-16T05:03:27;13.47;;;7.77;;
51566;SDS011;37657;53.182;5.638;2022-12-16T05:06:12;8.77;;;5.28;;
51566;SDS011;37657;53.182;5.638;2022-12-16T05:08:57;8.20;;;6.03;;
51566;SDS011;37657;53.182;5.638;2022-12-16T05:11:41;9.63;;;6.13;;
51566;SDS011;37657;53.182;5.638;2022-12-16T05:14:26;11.20;;;8.18;;
51566;SDS011;37657;53.182;5.638;2022-12-16T05:17:20;7.32;;;6.40;;
51566;SDS011;37657;53.182;5.638;2022-12-16T05:20:05;7.65;;;4.93;;
51566;SDS011;37657;53.182;5.638;2022-12-16T05:22:49;9.27;;;5.88;;
51566;SDS011;37657;53.182;5.638;2022-12-16T05:25:33;9.55;;;5.72;;
51566;SDS011;37657;53.182;5.638;2022-12-16T05:28:18;6.68;;;5.13;;
51566;SDS011;37657;53.182;5.638;2022-12-16T05:31:02;11.98;;;7.50;;
51566;SDS011;37657;53.182;5.638;2022-12-16T05:33:46;8.60;;;7.45;;
51566;SDS011;37657;53.182;5.638;2022-12-16T05:36:31;7.32;;;5.55;;
51566;SDS011;37657;53.182;5.638;2022-12-16T05:39:15;7.53;;;6.72;;
51566;SDS011;37657;53.182;5.638;2022-12-16T05:41:59;10.50;;;6.65;;
51566;SDS011;37657;53.182;5.638;2022-12-16T05:44:43;5.47;;;4.80;;
51566;SDS011;37657;53.182;5.638;2022-12-16T05:47:27;7.88;;;5.78;;
51566;SDS011;37657;53.182;5.638;2022-12-16T05:50:11;6.55;;;4.63;;
51566;SDS011;37657;53.182;5.638;2022-12-16T05:52:55;5.00;;;4.28;;
51566;SDS011;37657;53.182;5.638;2022-12-16T05:55:40;8.23;;;5.28;;
51566;SDS011;37657;53.182;5.638;2022-12-16T05:58:25;6.18;;;5.20;;
51566;SDS011;37657;53.182;5.638;2022-12-16T06:01:10;5.80;;;4.60;;
51566;SDS011;37657;53.182;5.638;2022-12-16T06:03:55;4.60;;;3.92;;
51566;SDS011;37657;53.182;5.638;2022-12-16T06:06:39;6.10;;;5.32;;
51566;SDS011;37657;53.182;5.638;2022-12-16T06:09:23;4.90;;;3.67;;
51566;SDS011;37657;53.182;5.638;2022-12-16T06:12:07;6.00;;;5.40;;
51566;SDS011;37657;53.182;5.638;2022-12-16T06:14:51;6.18;;;4.28;;
51566;SDS011;37657;53.182;5.638;2022-12-16T06:17:35;7.22;;;4.10;;
51566;SDS011;37657;53.182;5.638;2022-12-16T06:20:20;5.28;;;4.35;;
51566;SDS011;37657;53.182;5.638;2022-12-16T06:23:04;5.35;;;3.92;;
51566;SDS011;37657;53.182;5.638;2022-12-16T06:25:48;7.35;;;4.15;;
51566;SDS011;37657;53.182;5.638;2022-12-16T06:28:32;6.07;;;5.18;;
51566;SDS011;37657;53.182;5.638;2022-12-16T06:31:16;7.35;;;4.95;;
51566;SDS011;37657;53.182;5.638;2022-12-16T06:34:00;6.75;;;4.13;;
51566;SDS011;37657;53.182;5.638;2022-12-16T06:36:44;6.78;;;5.07;;
51566;SDS011;37657;53.182;5.638;2022-12-16T06:39:28;7.93;;;5.22;;
51566;SDS011;37657;53.182;5.638;2022-12-16T06:42:12;6.35;;;4.90;;
51566;SDS011;37657;53.182;5.638;2022-12-16T06:44:56;7.13;;;4.28;;
51566;SDS011;37657;53.182;5.638;2022-12-16T06:47:43;6.05;;;4.68;;
51566;SDS011;37657;53.182;5.638;2022-12-16T06:50:28;5.53;;;3.92;;
51566;SDS011;37657;53.182;5.638;2022-12-16T06:53:12;7.25;;;4.28;;
51566;SDS011;37657;53.182;5.638;2022-12-16T06:55:57;8.15;;;5.13;;
51566;SDS011;37657;53.182;5.638;2022-12-16T06:58:42;5.85;;;4.13;;
51566;SDS011;37657;53.182;5.638;2022-12-16T07:01:26;5.28;;;3.97;;
51566;SDS011;37657;53.182;5.638;2022-12-16T07:04:10;4.70;;;3.70;;
51566;SDS011;37657;53.182;5.638;2022-12-16T07:06:54;5.00;;;3.92;;
51566;SDS011;37657;53.182;5.638;2022-12-16T07:09:38;10.50;;;4.43;;
51566;SDS011;37657;53.182;5.638;2022-12-16T07:12:23;5.65;;;4.20;;
51566;SDS011;37657;53.182;5.638;2022-12-16T07:15:07;6.82;;;4.13;;
51566;SDS011;37657;53.182;5.638;2022-12-16T07:17:51;5.32;;;3.45;;
51566;SDS011;37657;53.182;5.638;2022-12-16T07:20:35;7.20;;;3.75;;
51566;SDS011;37657;53.182;5.638;2022-12-16T07:23:20;3.90;;;3.08;;
51566;SDS011;37657;53.182;5.638;2022-12-16T07:26:04;5.70;;;4.35;;
51566;SDS011;37657;53.182;5.638;2022-12-16T07:28:48;5.50;;;4.60;;
51566;SDS011;37657;53.182;5.638;2022-12-16T07:31:32;7.38;;;3.53;;
51566;SDS011;37657;53.182;5.638;2022-12-16T07:34:16;5.18;;;3.97;;
51566;SDS011;37657;53.182;5.638;2022-12-16T07:37:00;5.55;;;3.42;;
51566;SDS011;37657;53.182;5.638;2022-12-16T07:39:44;6.90;;;4.93;;
51566;SDS011;37657;53.182;5.638;2022-12-16T07:42:29;5.53;;;3.60;;
51566;SDS011;37657;53.182;5.638;2022-12-16T07:45:13;6.60;;;3.92;;
51566;SDS011;37657;53.182;5.638;2022-12-16T07:47:57;7.60;;;5.05;;
51566;SDS011;37657;53.182;5.638;2022-12-16T07:50:41;5.88;;;4.28;;
51566;SDS011;37657;53.182;5.638;2022-12-16T07:53:25;9.85;;;6.93;;
51566;SDS011;37657;53.182;5.638;2022-12-16T07:56:10;8.57;;;5.53;;
51566;SDS011;37657;53.182;5.638;2022-12-16T07:58:54;7.78;;;6.20;;
51566;SDS011;37657;53.182;5.638;2022-12-16T08:01:39;6.93;;;5.72;;
51566;SDS011;37657;53.182;5.638;2022-12-16T08:04:23;9.13;;;7.38;;
51566;SDS011;37657;53.182;5.638;2022-12-16T08:07:07;9.82;;;7.55;;
51566;SDS011;37657;53.182;5.638;2022-12-16T08:09:52;12.93;;;8.30;;
51566;SDS011;37657;53.182;5.638;2022-12-16T08:12:35;10.40;;;5.63;;
51566;SDS011;37657;53.182;5.638;2022-12-16T08:15:20;6.70;;;5.13;;
51566;SDS011;37657;53.182;5.638;2022-12-16T08:18:04;6.75;;;4.07;;
51566;SDS011;37657;53.182;5.638;2022-12-16T08:20:48;5.75;;;4.72;;
51566;SDS011;37657;53.182;5.638;2022-12-16T08:23:32;6.05;;;4.53;;
51566;SDS011;37657;53.182;5.638;2022-12-16T08:26:16;6.05;;;5.13;;
51566;SDS011;37657;53.182;5.638;2022-12-16T08:29:00;15.10;;;5.30;;
51566;SDS011;37657;53.182;5.638;2022-12-16T08:31:49;8.60;;;4.40;;
51566;SDS011;37657;53.182;5.638;2022-12-16T08:34:33;7.03;;;4.30;;
51566;SDS011;37657;53.182;5.638;2022-12-16T08:37:17;9.52;;;5.45;;
51566;SDS011;37657;53.182;5.638;2022-12-16T08:40:01;7.80;;;4.18;;
51566;SDS011;37657;53.182;5.638;2022-12-16T08:42:45;5.43;;;3.90;;
51566;SDS011;37657;53.182;5.638;2022-12-16T08:45:30;6.72;;;3.33;;
51566;SDS011;37657;53.182;5.638;2022-12-16T08:48:14;6.20;;;3.90;;
51566;SDS011;37657;53.182;5.638;2022-12-16T08:51:02;5.65;;;3.45;;
51566;SDS011;37657;53.182;5.638;2022-12-16T08:53:48;5.25;;;3.50;;
51566;SDS011;37657;53.182;5.638;2022-12-16T08:56:32;9.75;;;5.35;;
51566;SDS011;37657;53.182;5.638;2022-12-16T08:59:16;4.50;;;3.25;;
51566;SDS011;37657;53.182;5.638;2022-12-16T09:02:00;4.60;;;3.30;;
51566;SDS011;37657;53.182;5.638;2022-12-16T09:04:44;6.82;;;4.55;;
51566;SDS011;37657;53.182;5.638;2022-12-16T09:07:28;3.13;;;2.58;;
51566;SDS011;37657;53.182;5.638;2022-12-16T09:10:12;14.77;;;4.53;;
51566;SDS011;37657;53.182;5.638;2022-12-16T09:13:14;6.82;;;4.07;;
51566;SDS011;37657;53.182;5.638;2022-12-16T09:15:59;5.57;;;3.80;;
51566;SDS011;37657;53.182;5.638;2022-12-16T09:18:43;7.07;;;3.97;;
51566;SDS011;37657;53.182;5.638;2022-12-16T09:21:27;5.30;;;3.53;;
51566;SDS011;37657;53.182;5.638;2022-12-16T09:24:11;5.38;;;3.30;;
51566;SDS011;37657;53.182;5.638;2022-12-16T09:26:56;6.95;;;5.15;;
51566;SDS011;37657;53.182;5.638;2022-12-16T09:29:40;4.03;;;3.30;;
51566;SDS011;37657;53.182;5.638;2022-12-16T09:32:24;4.90;;;4.38;;
51566;SDS011;37657;53.182;5.638;2022-12-16T09:35:08;6.35;;;4.65;;
51566;SDS011;37657;53.182;5.638;2022-12-16T09:37:53;5.72;;;4.20;;
51566;SDS011;37657;53.182;5.638;2022-12-16T09:40:38;5.40;;;3.78;;
51566;SDS011;37657;53.182;5.638;2022-12-16T09:52:26;8.87;;;4.60;;
51566;SDS011;37657;53.182;5.638;2022-12-16T09:55:24;5.00;;;3.65;;
51566;SDS011;37657;53.182;5.638;2022-12-16T09:58:12;5.90;;;3.90;;
51566;SDS011;37657;53.182;5.638;2022-12-16T10:00:58;30.90;;;6.47;;
51566;SDS011;37657;53.182;5.638;2022-12-16T10:03:43;5.07;;;4.57;;
51566;SDS011;37657;53.182;5.638;2022-12-16T10:09:28;4.97;;;3.72;;
51566;SDS011;37657;53.182;5.638;2022-12-16T10:15:43;5.20;;;4.25;;
51566;SDS011;37657;53.182;5.638;2022-12-16T10:18:37;4.80;;;4.32;;
51566;SDS011;37657;53.182;5.638;2022-12-16T10:21:26;4.55;;;3.88;;
51566;SDS011;37657;53.182;5.638;2022-12-16T10:27:46;11.32;;;5.72;;
51566;SDS011;37657;53.182;5.638;2022-12-16T10:30:32;10.13;;;4.45;;
51566;SDS011;37657;53.182;5.638;2022-12-16T10:33:20;6.22;;;4.15;;
51566;SDS011;37657;53.182;5.638;2022-12-16T10:36:12;5.43;;;4.32;;
51566;SDS011;37657;53.182;5.638;2022-12-16T10:39:00;7.05;;;4.80;;
51566;SDS011;37657;53.182;5.638;2022-12-16T10:44:56;5.88;;;4.50;;
51566;SDS011;37657;53.182;5.638;2022-12-16T10:47:44;5.68;;;4.85;;
51566;SDS011;37657;53.182;5.638;2022-12-16T10:50:28;8.10;;;5.18;;
51566;SDS011;37657;53.182;5.638;2022-12-16T10:53:16;7.75;;;5.18;;
51566;SDS011;37657;53.182;5.638;2022-12-16T10:56:10;7.82;;;4.88;;
51566;SDS011;37657;53.182;5.638;2022-12-16T10:59:09;6.28;;;4.95;;
51566;SDS011;37657;53.182;5.638;2022-12-16T11:01:55;9.57;;;6.20;;
51566;SDS011;37657;53.182;5.638;2022-12-16T11:04:40;8.55;;;5.25;;
51566;SDS011;37657;53.182;5.638;2022-12-16T11:07:28;6.97;;;5.68;;
51566;SDS011;37657;53.182;5.638;2022-12-16T11:10:24;10.05;;;6.13;;
51566;SDS011;37657;53.182;5.638;2022-12-16T11:19:02;10.43;;;5.35;;
51566;SDS011;37657;53.182;5.638;2022-12-16T11:21:46;13.85;;;8.02;;
51566;SDS011;37657;53.182;5.638;2022-12-16T11:24:30;12.77;;;7.40;;
51566;SDS011;37657;53.182;5.638;2022-12-16T11:27:20;9.07;;;7.32;;
51566;SDS011;37657;53.182;5.638;2022-12-16T11:32:56;10.70;;;7.97;;
51566;SDS011;37657;53.182;5.638;2022-12-16T11:35:43;9.93;;;8.73;;
51566;SDS011;37657;53.182;5.638;2022-12-16T11:38:37;8.48;;;6.72;;
51566;SDS011;37657;53.182;5.638;2022-12-16T11:41:27;9.50;;;7.47;;
51566;SDS011;37657;53.182;5.638;2022-12-16T11:44:32;10.57;;;7.55;;
51566;SDS011;37657;53.182;5.638;2022-12-16T11:47:40;10.00;;;6.20;;
51566;SDS011;37657;53.182;5.638;2022-12-16T11:50:30;15.20;;;9.80;;
51566;SDS011;37657;53.182;5.638;2022-12-16T11:53:31;13.57;;;12.18;;
51566;SDS011;37657;53.182;5.638;2022-12-16T11:56:32;18.15;;;14.77;;
51566;SDS011;37657;53.182;5.638;2022-12-16T11:59:38;19.63;;;16.60;;
51566;SDS011;37657;53.182;5.638;2022-12-16T12:02:37;19.75;;;16.92;;
51566;SDS011;37657;53.182;5.638;2022-12-16T12:06:20;20.73;;;18.42;;
51566;SDS011;37657;53.182;5.638;2022-12-16T12:09:18;22.38;;;19.58;;
51566;SDS011;37657;53.182;5.638;2022-12-16T12:15:17;27.65;;;20.23;;
51566;SDS011;37657;53.182;5.638;2022-12-16T12:30:17;24.98;;;22.35;;
51566;SDS011;37657;53.182;5.638;2022-12-16T12:33:19;23.25;;;20.13;;
51566;SDS011;37657;53.182;5.638;2022-12-16T12:36:11;24.45;;;22.10;;
51566;SDS011;37657;53.182;5.638;2022-12-16T12:45:13;26.83;;;23.73;;
51566;SDS011;37657;53.182;5.638;2022-12-16T12:48:21;29.63;;;25.38;;
51566;SDS011;37657;53.182;5.638;2022-12-16T12:51:15;27.38;;;24.52;;
51566;SDS011;37657;53.182;5.638;2022-12-16T12:54:23;24.55;;;22.08;;
51566;SDS011;37657;53.182;5.638;2022-12-16T12:57:12;31.58;;;28.48;;
51566;SDS011;37657;53.182;5.638;2022-12-16T13:00:04;25.77;;;22.77;;
51566;SDS011;37657;53.182;5.638;2022-12-16T13:06:06;31.48;;;26.40;;
51566;SDS011;37657;53.182;5.638;2022-12-16T13:11:39;33.20;;;26.67;;
51566;SDS011;37657;53.182;5.638;2022-12-16T13:15:03;30.60;;;27.42;;
51566;SDS011;37657;53.182;5.638;2022-12-16T13:20:52;26.88;;;24.00;;
51566;SDS011;37657;53.182;5.638;2022-12-16T13:23:39;27.73;;;23.00;;
51566;SDS011;37657;53.182;5.638;2022-12-16T13:26:26;26.52;;;23.95;;
51566;SDS011;37657;53.182;5.638;2022-12-16T13:32:22;26.17;;;23.63;;
51566;SDS011;37657;53.182;5.638;2022-12-16T13:37:58;28.38;;;25.52;;
51566;SDS011;37657;53.182;5.638;2022-12-16T13:41:05;30.45;;;24.60;;
51566;SDS011;37657;53.182;5.638;2022-12-16T13:44:09;27.88;;;25.00;;
51566;SDS011;37657;53.182;5.638;2022-12-16T13:46:55;32.08;;;26.02;;
51566;SDS011;37657;53.182;5.638;2022-12-16T13:49:49;33.28;;;26.25;;
51566;SDS011;37657;53.182;5.638;2022-12-16T13:58:29;30.55;;;27.10;;
51566;SDS011;37657;53.182;5.638;2022-12-16T14:01:21;37.25;;;29.88;;
51566;SDS011;37657;53.182;5.638;2022-12-16T14:04:18;33.67;;;30.25;;
51566;SDS011;37657;53.182;5.638;2022-12-16T14:07:08;34.60;;;31.05;;
51566;SDS011;37657;53.182;5.638;2022-12-16T14:09:52;34.67;;;29.27;;
51566;SDS011;37657;53.182;5.638;2022-12-16T14:15:54;32.20;;;27.85;;
51566;SDS011;37657;53.182;5.638;2022-12-16T14:21:51;36.90;;;33.45;;
51566;SDS011;37657;53.182;5.638;2022-12-16T14:24:42;43.17;;;37.55;;
51566;SDS011;37657;53.182;5.638;2022-12-16T14:27:27;49.70;;;38.78;;
51566;SDS011;37657;53.182;5.638;2022-12-16T14:30:16;51.40;;;38.58;;
51566;SDS011;37657;53.182;5.638;2022-12-16T14:33:21;36.60;;;31.20;;
51566;SDS011;37657;53.182;5.638;2022-12-16T14:36:23;42.13;;;38.10;;
51566;SDS011;37657;53.182;5.638;2022-12-16T14:39:13;42.35;;;36.53;;
51566;SDS011;37657;53.182;5.638;2022-12-16T14:42:14;48.10;;;36.28;;
51566;SDS011;37657;53.182;5.638;2022-12-16T14:45:05;40.65;;;35.88;;
51566;SDS011;37657;53.182;5.638;2022-12-16T14:48:20;42.28;;;37.42;;
51566;SDS011;37657;53.182;5.638;2022-12-16T14:57:21;42.58;;;38.28;;
51566;SDS011;37657;53.182;5.638;2022-12-16T15:03:05;58.63;;;43.45;;
51566;SDS011;37657;53.182;5.638;2022-12-16T15:06:00;57.95;;;48.05;;
51566;SDS011;37657;53.182;5.638;2022-12-16T15:08:51;51.45;;;45.63;;
51566;SDS011;37657;53.182;5.638;2022-12-16T15:11:38;47.03;;;36.72;;
51566;SDS011;37657;53.182;5.638;2022-12-16T15:14:27;44.38;;;34.83;;
51566;SDS011;37657;53.182;5.638;2022-12-16T15:17:22;41.00;;;36.47;;
51566;SDS011;37657;53.182;5.638;2022-12-16T15:20:31;43.35;;;35.30;;
51566;SDS011;37657;53.182;5.638;2022-12-16T15:23:21;38.70;;;33.40;;
51566;SDS011;37657;53.182;5.638;2022-12-16T15:26:17;40.50;;;35.58;;
51566;SDS011;37657;53.182;5.638;2022-12-16T15:29:02;38.22;;;34.25;;
51566;SDS011;37657;53.182;5.638;2022-12-16T15:31:50;35.90;;;30.98;;
51566;SDS011;37657;53.182;5.638;2022-12-16T15:34:47;34.92;;;31.75;;
51566;SDS011;37657;53.182;5.638;2022-12-16T15:37:38;38.22;;;34.20;;
51566;SDS011;37657;53.182;5.638;2022-12-16T15:40:26;32.53;;;28.92;;
51566;SDS011;37657;53.182;5.638;2022-12-16T15:46:17;37.05;;;31.75;;
51566;SDS011;37657;53.182;5.638;2022-12-16T15:52:20;38.53;;;34.35;;
51566;SDS011;37657;53.182;5.638;2022-12-16T15:55:35;38.90;;;32.92;;
51566;SDS011;37657;53.182;5.638;2022-12-16T16:01:16;41.75;;;37.60;;
51566;SDS011;37657;53.182;5.638;2022-12-16T16:04:17;35.17;;;31.08;;
51566;SDS011;37657;53.182;5.638;2022-12-16T16:07:21;38.42;;;31.95;;
51566;SDS011;37657;53.182;5.638;2022-12-16T16:12:58;38.70;;;31.60;;
51566;SDS011;37657;53.182;5.638;2022-12-16T16:18:38;33.72;;;29.25;;
51566;SDS011;37657;53.182;5.638;2022-12-16T16:24:08;41.13;;;36.53;;
51566;SDS011;37657;53.182;5.638;2022-12-16T16:26:55;40.70;;;35.78;;
51566;SDS011;37657;53.182;5.638;2022-12-16T16:29:42;44.97;;;36.20;;
51566;SDS011;37657;53.182;5.638;2022-12-16T16:32:26;55.30;;;33.55;;
51566;SDS011;37657;53.182;5.638;2022-12-16T16:35:10;40.60;;;36.42;;
51566;SDS011;37657;53.182;5.638;2022-12-16T16:37:54;41.72;;;37.25;;
51566;SDS011;37657;53.182;5.638;2022-12-16T16:40:39;41.17;;;34.60;;
51566;SDS011;37657;53.182;5.638;2022-12-16T16:43:26;34.30;;;26.60;;
51566;SDS011;37657;53.182;5.638;2022-12-16T16:49:08;29.30;;;25.95;;
51566;SDS011;37657;53.182;5.638;2022-12-16T16:51:53;21.73;;;19.35;;
51566;SDS011;37657;53.182;5.638;2022-12-16T16:54:37;25.45;;;18.73;;
51566;SDS011;37657;53.182;5.638;2022-12-16T16:57:21;36.92;;;25.40;;
51566;SDS011;37657;53.182;5.638;2022-12-16T17:00:06;144.85;;;36.38;;
51566;SDS011;37657;53.182;5.638;2022-12-16T17:02:52;92.20;;;32.10;;
51566;SDS011;37657;53.182;5.638;2022-12-16T17:05:36;29.27;;;24.63;;
51566;SDS011;37657;53.182;5.638;2022-12-16T17:08:20;42.42;;;31.25;;
51566;SDS011;37657;53.182;5.638;2022-12-16T17:11:09;55.65;;;30.23;;
51566;SDS011;37657;53.182;5.638;2022-12-16T17:13:59;49.53;;;31.70;;
51566;SDS011;37657;53.182;5.638;2022-12-16T17:16:47;28.08;;;25.15;;
51566;SDS011;37657;53.182;5.638;2022-12-16T17:19:31;26.33;;;23.73;;
51566;SDS011;37657;53.182;5.638;2022-12-16T17:22:15;30.85;;;26.20;;
51566;SDS011;37657;53.182;5.638;2022-12-16T17:24:59;97.78;;;33.67;;
51566;SDS011;37657;53.182;5.638;2022-12-16T17:27:43;83.63;;;28.38;;
51566;SDS011;37657;53.182;5.638;2022-12-16T17:30:29;117.05;;;30.52;;
51566;SDS011;37657;53.182;5.638;2022-12-16T17:33:14;180.87;;;35.03;;
51566;SDS011;37657;53.182;5.638;2022-12-16T17:35:58;84.60;;;29.52;;
51566;SDS011;37657;53.182;5.638;2022-12-16T17:38:44;48.35;;;31.52;;
51566;SDS011;37657;53.182;5.638;2022-12-16T17:41:29;57.42;;;33.88;;
51566;SDS011;37657;53.182;5.638;2022-12-16T17:44:14;128.90;;;37.22;;
51566;SDS011;37657;53.182;5.638;2022-12-16T17:46:59;125.38;;;37.35;;
51566;SDS011;37657;53.182;5.638;2022-12-16T17:49:43;223.07;;;42.22;;
51566;SDS011;37657;53.182;5.638;2022-12-16T17:52:28;390.45;;;52.40;;
51566;SDS011;37657;53.182;5.638;2022-12-16T17:55:12;235.40;;;41.00;;
51566;SDS011;37657;53.182;5.638;2022-12-16T17:57:56;454.02;;;60.70;;
51566;SDS011;37657;53.182;5.638;2022-12-16T18:00:40;278.48;;;41.67;;
51566;SDS011;37657;53.182;5.638;2022-12-16T18:03:25;358.33;;;45.50;;
51566;SDS011;37657;53.182;5.638;2022-12-16T18:06:09;470.83;;;51.88;;
51566;SDS011;37657;53.182;5.638;2022-12-16T18:08:53;205.80;;;34.85;;
51566;SDS011;37657;53.182;5.638;2022-12-16T18:11:40;352.38;;;47.58;;
51566;SDS011;37657;53.182;5.638;2022-12-16T18:14:24;305.00;;;42.40;;
51566;SDS011;37657;53.182;5.638;2022-12-16T18:17:08;245.25;;;37.85;;
51566;SDS011;37657;53.182;5.638;2022-12-16T18:19:52;235.13;;;37.78;;
51566;SDS011;37657;53.182;5.638;2022-12-16T18:22:36;279.35;;;36.67;;
51566;SDS011;37657;53.182;5.638;2022-12-16T18:25:21;229.35;;;30.73;;
51566;SDS011;37657;53.182;5.638;2022-12-16T18:28:05;105.28;;;23.92;;
51566;SDS011;37657;53.182;5.638;2022-12-16T18:30:49;180.90;;;29.45;;
51566;SDS011;37657;53.182;5.638;2022-12-16T18:33:33;144.63;;;27.80;;